Silica, Minnesota
Current Conditions -  °F | °C
As of 2:14 AM on Monday 26 Jan 2015 (Local Time) from KHIB Reporting Station
Light Snow Light Snow  
Wind Chill: 12°   Ceiling: 2700
Heat Index: 21°   Visibility: 2mi
Dew Point: 15°   Wind: 7mph
Humidity: 78%   Direction: 170°S
Pressure: 29.74"   Gusts: NA
Location:  47.4158°N, 93.0053°W
Report Text: KHIB 260814Z AUTO 17006KT 2SM -SN FEW015 BKN027 OVC035 M06/M09 A2974 RMK AO2 P0000 T10611094
Loading
Personal Weather Stations






























Interactive Weather Map New forecast layout! Learn more

10-Day Weather Forecast

Advertisements
Track Severe Weather on mobile